Kikinda, Srbija

02:32 AM CET on december 23, 2014 (GMT +0100)
Giarmata | Change Station
CLOSE
Current Station
Airport
Location: Timisoara,
Višina: 348 ft
Nearby Weather Stations

Viš 348 ft 45.81 °N, 21.33 °E | Updated 32 minutes ago

Clear
Jasno
32 °F
Feels Like 28 °F
N
5
Veter Spremenljivo Veter od VJV

Danes
High -- | Low -- °F
--% Chance of Precip.
Yesterday
High -- | Low -- °F
Precip. -- v
7:17 AM 3:57 PM
Mlaj, 1% visible
Zračni tlak 30.15 v
Vidljivost -9999.0 milje
Oblaki
Občutek zaradi vetra 28 °F
Rosišče 32 °F
Vlažnost 100%
Padavine 0.00 v
Snow Depth Not available.
UV Not available.
Pollen Not available.
Air Quality Not available.
Flu Activity Not available.
METAR LRTR 230100Z 12004KT 080V140 CAVOK 00/00 Q1021 R11/29//95

More Conditions Fewer Conditions

Zračni tlak 30.15 v
Vidljivost -9999.0 milje
Oblaki
Občutek zaradi vetra 28 °F
Rosišče 32 °F
Vlažnost 100%
Padavine 0.00 v
Snow Depth Not available.
UV Not available.
Pollen Not available.
Air Quality Not available.
Flu Activity Not available.
METAR LRTR 230100Z 12004KT 080V140 CAVOK 00/00 Q1021 R11/29//95

More Conditions Fewer Conditions

10-Day Weather Forecast

Almanac

Astronomija

Dec. 23, 2014 Rise Set
Actual Time
Civil Twilight
Nautical Twilight
Astronomical Twilight
Moon
Length Of Visible Light
Dolžina dneva
Tomorrow will be .
, % of the Moon is Illuminated

Današnji ekstremi

Country Highs Country Lows

Community

WunderPhotos

Upload Photos

1,779,753 photos uploaded!

WunderBlogs® & News

Nearby

Air Quality

  Air Quality AQ Index Pollutant
Not available.

Snow Depth

Station Depth Višina

Earthquake Activity

City Distance Mag. Time & Date
Minimum magnitude displayed is 2.5.

Coastal Water Temperatures

Mesto Temperatura

Nearby Weather Stations